sensor_id;sensor_type;location;lat;lon;timestamp;temperature;humidity
42905;DHT22;28550;51.228;4.528;2023-10-19T00:00:35;15.70;99.90
42905;DHT22;28550;51.228;4.528;2023-10-19T00:03:02;15.80;99.90
42905;DHT22;28550;51.228;4.528;2023-10-19T00:05:31;15.80;99.90
42905;DHT22;28550;51.228;4.528;2023-10-19T00:07:58;15.80;99.90
42905;DHT22;28550;51.228;4.528;2023-10-19T00:10:26;15.90;99.90
42905;DHT22;28550;51.228;4.528;2023-10-19T00:12:59;15.90;99.90
42905;DHT22;28550;51.228;4.528;2023-10-19T00:15:31;16.00;99.90
42905;DHT22;28550;51.228;4.528;2023-10-19T00:17:57;16.10;99.90
42905;DHT22;28550;51.228;4.528;2023-10-19T00:20:25;16.00;99.90
42905;DHT22;28550;51.228;4.528;2023-10-19T00:23:21;16.00;99.90
42905;DHT22;28550;51.228;4.528;2023-10-19T00:26:08;16.00;99.90
42905;DHT22;28550;51.228;4.528;2023-10-19T00:28:35;16.00;99.90
42905;DHT22;28550;51.228;4.528;2023-10-19T00:31:02;16.00;99.90
42905;DHT22;28550;51.228;4.528;2023-10-19T00:33:35;16.00;99.90
42905;DHT22;28550;51.228;4.528;2023-10-19T00:36:10;16.00;99.90
42905;DHT22;28550;51.228;4.528;2023-10-19T00:38:39;16.00;99.90
42905;DHT22;28550;51.228;4.528;2023-10-19T00:41:13;16.10;99.90
42905;DHT22;28550;51.228;4.528;2023-10-19T00:43:43;16.10;99.90
42905;DHT22;28550;51.228;4.528;2023-10-19T00:46:12;16.10;99.90
42905;DHT22;28550;51.228;4.528;2023-10-19T00:49:01;16.10;99.90
42905;DHT22;28550;51.228;4.528;2023-10-19T00:51:37;16.00;99.90
42905;DHT22;28550;51.228;4.528;2023-10-19T00:56:45;16.00;99.90
42905;DHT22;28550;51.228;4.528;2023-10-19T00:59:15;16.00;99.90
42905;DHT22;28550;51.228;4.528;2023-10-19T01:01:46;16.00;99.90
42905;DHT22;28550;51.228;4.528;2023-10-19T01:04:15;16.10;99.90
42905;DHT22;28550;51.228;4.528;2023-10-19T01:06:49;16.10;99.90
42905;DHT22;28550;51.228;4.528;2023-10-19T01:09:29;16.00;99.90
42905;DHT22;28550;51.228;4.528;2023-10-19T01:12:00;16.00;99.90
42905;DHT22;28550;51.228;4.528;2023-10-19T01:14:29;16.00;99.90
42905;DHT22;28550;51.228;4.528;2023-10-19T01:16:57;16.10;99.90
42905;DHT22;28550;51.228;4.528;2023-10-19T01:19:24;16.10;99.90
42905;DHT22;28550;51.228;4.528;2023-10-19T01:21:52;16.10;99.90
42905;DHT22;28550;51.228;4.528;2023-10-19T01:24:24;16.10;99.90
42905;DHT22;28550;51.228;4.528;2023-10-19T01:27:08;16.10;99.90
42905;DHT22;28550;51.228;4.528;2023-10-19T01:29:36;16.00;99.90
42905;DHT22;28550;51.228;4.528;2023-10-19T01:32:05;16.00;99.90
42905;DHT22;28550;51.228;4.528;2023-10-19T01:34:32;16.00;99.90
42905;DHT22;28550;51.228;4.528;2023-10-19T01:36:59;16.10;99.90
42905;DHT22;28550;51.228;4.528;2023-10-19T01:39:33;16.20;99.90
42905;DHT22;28550;51.228;4.528;2023-10-19T01:42:02;16.20;99.90
42905;DHT22;28550;51.228;4.528;2023-10-19T01:44:30;16.20;99.90
42905;DHT22;28550;51.228;4.528;2023-10-19T01:46:56;16.20;99.90
42905;DHT22;28550;51.228;4.528;2023-10-19T01:49:22;16.30;99.20
42905;DHT22;28550;51.228;4.528;2023-10-19T01:51:54;16.30;97.70
42905;DHT22;28550;51.228;4.528;2023-10-19T01:54:21;16.20;98.10
42905;DHT22;28550;51.228;4.528;2023-10-19T01:56:54;16.20;98.00
42905;DHT22;28550;51.228;4.528;2023-10-19T01:59:28;16.30;95.80
42905;DHT22;28550;51.228;4.528;2023-10-19T02:01:54;16.40;93.20
42905;DHT22;28550;51.228;4.528;2023-10-19T02:04:21;16.30;94.50
42905;DHT22;28550;51.228;4.528;2023-10-19T02:06:51;16.20;94.50
42905;DHT22;28550;51.228;4.528;2023-10-19T02:09:20;16.20;95.40
42905;DHT22;28550;51.228;4.528;2023-10-19T02:11:53;16.20;95.10
42905;DHT22;28550;51.228;4.528;2023-10-19T02:14:21;16.20;95.00
42905;DHT22;28550;51.228;4.528;2023-10-19T02:16:48;16.20;93.70
42905;DHT22;28550;51.228;4.528;2023-10-19T02:19:17;16.20;94.40
42905;DHT22;28550;51.228;4.528;2023-10-19T02:21:43;16.20;94.70
42905;DHT22;28550;51.228;4.528;2023-10-19T02:24:13;16.20;94.40
42905;DHT22;28550;51.228;4.528;2023-10-19T02:26:42;16.20;96.40
42905;DHT22;28550;51.228;4.528;2023-10-19T02:29:09;16.20;95.40
42905;DHT22;28550;51.228;4.528;2023-10-19T02:31:40;16.20;94.30
42905;DHT22;28550;51.228;4.528;2023-10-19T02:34:07;16.20;95.00
42905;DHT22;28550;51.228;4.528;2023-10-19T02:36:34;16.10;97.60
42905;DHT22;28550;51.228;4.528;2023-10-19T02:39:04;16.10;96.70
42905;DHT22;28550;51.228;4.528;2023-10-19T02:41:40;16.10;96.60
42905;DHT22;28550;51.228;4.528;2023-10-19T02:44:14;16.20;95.30
42905;DHT22;28550;51.228;4.528;2023-10-19T02:46:43;16.30;95.00
42905;DHT22;28550;51.228;4.528;2023-10-19T02:49:12;16.30;94.10
42905;DHT22;28550;51.228;4.528;2023-10-19T02:51:44;16.20;93.90
42905;DHT22;28550;51.228;4.528;2023-10-19T02:54:12;16.20;95.00
42905;DHT22;28550;51.228;4.528;2023-10-19T02:56:44;16.10;96.20
42905;DHT22;28550;51.228;4.528;2023-10-19T02:59:17;16.10;94.70
42905;DHT22;28550;51.228;4.528;2023-10-19T03:01:47;15.90;96.30
42905;DHT22;28550;51.228;4.528;2023-10-19T03:04:13;15.70;97.10
42905;DHT22;28550;51.228;4.528;2023-10-19T03:06:39;15.70;98.40
42905;DHT22;28550;51.228;4.528;2023-10-19T03:09:07;15.80;97.70
42905;DHT22;28550;51.228;4.528;2023-10-19T03:11:41;15.60;98.90
42905;DHT22;28550;51.228;4.528;2023-10-19T03:14:08;15.50;99.90
42905;DHT22;28550;51.228;4.528;2023-10-19T03:16:36;15.50;99.90
42905;DHT22;28550;51.228;4.528;2023-10-19T03:19:02;15.40;99.90
42905;DHT22;28550;51.228;4.528;2023-10-19T03:21:30;15.30;99.90
42905;DHT22;28550;51.228;4.528;2023-10-19T03:23:59;15.30;99.90
42905;DHT22;28550;51.228;4.528;2023-10-19T03:26:38;15.30;99.90
42905;DHT22;28550;51.228;4.528;2023-10-19T03:29:05;15.30;99.90
42905;DHT22;28550;51.228;4.528;2023-10-19T03:31:38;15.20;99.90
42905;DHT22;28550;51.228;4.528;2023-10-19T03:34:10;15.10;99.90
42905;DHT22;28550;51.228;4.528;2023-10-19T03:36:38;15.10;99.90
42905;DHT22;28550;51.228;4.528;2023-10-19T03:39:07;15.20;99.90
42905;DHT22;28550;51.228;4.528;2023-10-19T03:41:40;15.10;99.90
42905;DHT22;28550;51.228;4.528;2023-10-19T03:44:14;15.10;99.90
42905;DHT22;28550;51.228;4.528;2023-10-19T03:47:02;15.00;99.90
42905;DHT22;28550;51.228;4.528;2023-10-19T03:49:30;15.00;99.90
42905;DHT22;28550;51.228;4.528;2023-10-19T03:51:59;15.00;99.90
42905;DHT22;28550;51.228;4.528;2023-10-19T03:54:28;15.00;99.90
42905;DHT22;28550;51.228;4.528;2023-10-19T03:56:54;14.90;99.90
42905;DHT22;28550;51.228;4.528;2023-10-19T03:59:26;15.00;99.90
42905;DHT22;28550;51.228;4.528;2023-10-19T04:02:00;15.10;99.90
42905;DHT22;28550;51.228;4.528;2023-10-19T04:04:32;15.10;99.90
42905;DHT22;28550;51.228;4.528;2023-10-19T04:06:59;15.20;99.90
42905;DHT22;28550;51.228;4.528;2023-10-19T04:09:25;15.30;99.90
42905;DHT22;28550;51.228;4.528;2023-10-19T04:11:57;15.20;99.90
42905;DHT22;28550;51.228;4.528;2023-10-19T04:14:29;15.40;99.90
42905;DHT22;28550;51.228;4.528;2023-10-19T04:16:56;15.40;99.90
42905;DHT22;28550;51.228;4.528;2023-10-19T04:19:21;15.50;99.90
42905;DHT22;28550;51.228;4.528;2023-10-19T04:21:47;15.50;99.90
42905;DHT22;28550;51.228;4.528;2023-10-19T04:24:15;15.50;99.90
42905;DHT22;28550;51.228;4.528;2023-10-19T04:26:44;15.60;99.90
42905;DHT22;28550;51.228;4.528;2023-10-19T04:29:10;15.60;99.90
42905;DHT22;28550;51.228;4.528;2023-10-19T04:31:40;15.60;99.90
42905;DHT22;28550;51.228;4.528;2023-10-19T04:34:21;15.70;99.90
42905;DHT22;28550;51.228;4.528;2023-10-19T04:36:56;15.70;99.90
42905;DHT22;28550;51.228;4.528;2023-10-19T04:39:26;15.60;99.90
42905;DHT22;28550;51.228;4.528;2023-10-19T04:41:53;15.60;99.90
42905;DHT22;28550;51.228;4.528;2023-10-19T04:44:19;15.60;99.90
42905;DHT22;28550;51.228;4.528;2023-10-19T04:46:44;15.70;99.90
42905;DHT22;28550;51.228;4.528;2023-10-19T04:49:11;15.80;99.50
42905;DHT22;28550;51.228;4.528;2023-10-19T04:51:46;15.90;98.10
42905;DHT22;28550;51.228;4.528;2023-10-19T04:54:12;15.90;97.30
42905;DHT22;28550;51.228;4.528;2023-10-19T04:56:37;15.90;96.80
42905;DHT22;28550;51.228;4.528;2023-10-19T04:59:03;15.80;99.00
42905;DHT22;28550;51.228;4.528;2023-10-19T05:01:30;15.80;98.70
42905;DHT22;28550;51.228;4.528;2023-10-19T05:03:59;15.80;99.40
42905;DHT22;28550;51.228;4.528;2023-10-19T05:06:30;15.80;99.90
42905;DHT22;28550;51.228;4.528;2023-10-19T05:08:56;15.90;99.80
42905;DHT22;28550;51.228;4.528;2023-10-19T05:11:22;15.90;98.50
42905;DHT22;28550;51.228;4.528;2023-10-19T05:13:48;15.80;99.70
42905;DHT22;28550;51.228;4.528;2023-10-19T05:16:14;15.90;99.20
42905;DHT22;28550;51.228;4.528;2023-10-19T05:18:39;15.80;98.70
42905;DHT22;28550;51.228;4.528;2023-10-19T05:21:05;15.90;98.50
42905;DHT22;28550;51.228;4.528;2023-10-19T05:23:31;15.90;97.60
42905;DHT22;28550;51.228;4.528;2023-10-19T05:26:01;16.00;97.70
42905;DHT22;28550;51.228;4.528;2023-10-19T05:28:35;16.00;98.20
42905;DHT22;28550;51.228;4.528;2023-10-19T05:31:01;16.00;98.30
42905;DHT22;28550;51.228;4.528;2023-10-19T05:33:27;15.90;99.00
42905;DHT22;28550;51.228;4.528;2023-10-19T05:35:54;15.90;98.90
42905;DHT22;28550;51.228;4.528;2023-10-19T05:38:20;15.90;97.80
42905;DHT22;28550;51.228;4.528;2023-10-19T05:40:48;15.90;99.00
42905;DHT22;28550;51.228;4.528;2023-10-19T05:43:15;15.90;99.90
42905;DHT22;28550;51.228;4.528;2023-10-19T05:45:41;15.90;99.90
42905;DHT22;28550;51.228;4.528;2023-10-19T05:48:07;16.00;99.40
42905;DHT22;28550;51.228;4.528;2023-10-19T05:50:33;16.00;98.90
42905;DHT22;28550;51.228;4.528;2023-10-19T05:52:59;16.10;98.60
42905;DHT22;28550;51.228;4.528;2023-10-19T05:55:25;16.20;96.20
42905;DHT22;28550;51.228;4.528;2023-10-19T05:57:51;16.20;96.10
42905;DHT22;28550;51.228;4.528;2023-10-19T06:00:17;16.20;96.10
42905;DHT22;28550;51.228;4.528;2023-10-19T06:02:56;16.10;96.50
42905;DHT22;28550;51.228;4.528;2023-10-19T06:05:23;16.10;97.00
42905;DHT22;28550;51.228;4.528;2023-10-19T06:07:50;16.10;97.40
42905;DHT22;28550;51.228;4.528;2023-10-19T06:10:19;16.10;97.30
42905;DHT22;28550;51.228;4.528;2023-10-19T06:12:50;16.20;97.80
42905;DHT22;28550;51.228;4.528;2023-10-19T06:15:17;16.00;99.40
42905;DHT22;28550;51.228;4.528;2023-10-19T06:17:44;15.90;99.90
42905;DHT22;28550;51.228;4.528;2023-10-19T06:20:12;15.80;99.90
42905;DHT22;28550;51.228;4.528;2023-10-19T06:23:10;15.80;99.90
42905;DHT22;28550;51.228;4.528;2023-10-19T06:25:39;15.80;99.90
42905;DHT22;28550;51.228;4.528;2023-10-19T06:28:08;15.70;99.90
42905;DHT22;28550;51.228;4.528;2023-10-19T06:30:34;15.70;99.90
42905;DHT22;28550;51.228;4.528;2023-10-19T06:33:12;15.70;99.90
42905;DHT22;28550;51.228;4.528;2023-10-19T06:35:37;15.80;99.90
42905;DHT22;28550;51.228;4.528;2023-10-19T06:38:04;15.80;99.90
42905;DHT22;28550;51.228;4.528;2023-10-19T06:40:34;15.90;99.90
42905;DHT22;28550;51.228;4.528;2023-10-19T06:43:03;15.80;99.90
42905;DHT22;28550;51.228;4.528;2023-10-19T06:45:48;15.90;99.90
42905;DHT22;28550;51.228;4.528;2023-10-19T06:51:05;15.90;99.90
42905;DHT22;28550;51.228;4.528;2023-10-19T06:53:32;15.90;99.90
42905;DHT22;28550;51.228;4.528;2023-10-19T06:55:58;15.80;99.90
42905;DHT22;28550;51.228;4.528;2023-10-19T06:58:24;15.80;99.90
42905;DHT22;28550;51.228;4.528;2023-10-19T07:00:53;15.80;99.90
42905;DHT22;28550;51.228;4.528;2023-10-19T07:03:33;15.70;99.90
42905;DHT22;28550;51.228;4.528;2023-10-19T07:06:01;15.80;99.90
42905;DHT22;28550;51.228;4.528;2023-10-19T07:11:31;15.90;99.90
42905;DHT22;28550;51.228;4.528;2023-10-19T07:14:33;15.80;99.90
42905;DHT22;28550;51.228;4.528;2023-10-19T07:17:02;15.80;99.90
42905;DHT22;28550;51.228;4.528;2023-10-19T07:19:31;16.00;99.90
42905;DHT22;28550;51.228;4.528;2023-10-19T07:22:09;16.40;99.90
42905;DHT22;28550;51.228;4.528;2023-10-19T07:24:35;16.70;98.20
42905;DHT22;28550;51.228;4.528;2023-10-19T07:27:03;17.00;97.30
42905;DHT22;28550;51.228;4.528;2023-10-19T07:29:33;17.20;93.60
42905;DHT22;28550;51.228;4.528;2023-10-19T07:32:02;17.60;91.00
42905;DHT22;28550;51.228;4.528;2023-10-19T07:34:33;18.20;63.70
42905;DHT22;28550;51.228;4.528;2023-10-19T07:37:07;18.50;49.40
42905;DHT22;28550;51.228;4.528;2023-10-19T07:39:33;19.10;25.80
42905;DHT22;28550;51.228;4.528;2023-10-19T07:42:20;19.80;17.90
42905;DHT22;28550;51.228;4.528;2023-10-19T07:45:03;20.20;1.00
42905;DHT22;28550;51.228;4.528;2023-10-19T07:47:30;21.10;1.00
42905;DHT22;28550;51.228;4.528;2023-10-19T07:50:05;21.10;1.00
42905;DHT22;28550;51.228;4.528;2023-10-19T07:52:38;22.30;1.00
42905;DHT22;28550;51.228;4.528;2023-10-19T07:55:05;22.50;99.90
42905;DHT22;28550;51.228;4.528;2023-10-19T07:57:36;22.10;99.90
42905;DHT22;28550;51.228;4.528;2023-10-19T08:00:02;22.70;99.90
42905;DHT22;28550;51.228;4.528;2023-10-19T08:02:30;22.80;99.90
42905;DHT22;28550;51.228;4.528;2023-10-19T08:04:59;23.30;99.90
42905;DHT22;28550;51.228;4.528;2023-10-19T08:07:26;22.80;1.00
42905;DHT22;28550;51.228;4.528;2023-10-19T08:09:53;22.40;1.00
42905;DHT22;28550;51.228;4.528;2023-10-19T08:12:21;21.50;1.00
42905;DHT22;28550;51.228;4.528;2023-10-19T08:14:48;22.00;1.00
42905;DHT22;28550;51.228;4.528;2023-10-19T08:17:17;22.20;99.90
42905;DHT22;28550;51.228;4.528;2023-10-19T08:19:42;22.80;99.90
42905;DHT22;28550;51.228;4.528;2023-10-19T08:22:57;22.90;99.90
42905;DHT22;28550;51.228;4.528;2023-10-19T08:25:34;23.70;99.90
42905;DHT22;28550;51.228;4.528;2023-10-19T08:28:00;23.10;99.90
42905;DHT22;28550;51.228;4.528;2023-10-19T08:30:27;22.60;4.50
42905;DHT22;28550;51.228;4.528;2023-10-19T08:32:56;21.60;1.00
42905;DHT22;28550;51.228;4.528;2023-10-19T08:35:23;21.10;1.00
42905;DHT22;28550;51.228;4.528;2023-10-19T08:37:58;20.60;1.00
42905;DHT22;28550;51.228;4.528;2023-10-19T08:40:26;19.70;1.00
42905;DHT22;28550;51.228;4.528;2023-10-19T08:42:56;19.20;11.40
42905;DHT22;28550;51.228;4.528;2023-10-19T08:45:22;18.90;17.80
42905;DHT22;28550;51.228;4.528;2023-10-19T08:50:35;18.90;31.50
42905;DHT22;28550;51.228;4.528;2023-10-19T08:53:02;18.80;30.60
42905;DHT22;28550;51.228;4.528;2023-10-19T08:55:28;19.40;26.40
42905;DHT22;28550;51.228;4.528;2023-10-19T08:57:59;20.50;1.00
42905;DHT22;28550;51.228;4.528;2023-10-19T09:00:27;20.90;1.00
42905;DHT22;28550;51.228;4.528;2023-10-19T09:02:53;21.20;1.00
42905;DHT22;28550;51.228;4.528;2023-10-19T09:05:22;21.00;1.00
42905;DHT22;28550;51.228;4.528;2023-10-19T09:07:55;20.40;1.00
42905;DHT22;28550;51.228;4.528;2023-10-19T09:10:26;20.60;1.00
42905;DHT22;28550;51.228;4.528;2023-10-19T09:13:03;20.50;1.00
42905;DHT22;28550;51.228;4.528;2023-10-19T09:15:31;21.40;1.00
42905;DHT22;28550;51.228;4.528;2023-10-19T09:18:06;22.30;1.00
42905;DHT22;28550;51.228;4.528;2023-10-19T09:20:37;21.70;1.00
42905;DHT22;28550;51.228;4.528;2023-10-19T09:23:03;21.30;1.00
42905;DHT22;28550;51.228;4.528;2023-10-19T09:25:29;21.50;1.00
42905;DHT22;28550;51.228;4.528;2023-10-19T09:27:54;21.40;1.00
42905;DHT22;28550;51.228;4.528;2023-10-19T09:30:21;21.30;1.00
42905;DHT22;28550;51.228;4.528;2023-10-19T09:32:48;21.20;1.00
42905;DHT22;28550;51.228;4.528;2023-10-19T09:35:15;20.90;1.00
42905;DHT22;28550;51.228;4.528;2023-10-19T09:37:45;20.30;1.00
42905;DHT22;28550;51.228;4.528;2023-10-19T09:40:11;19.90;1.00
42905;DHT22;28550;51.228;4.528;2023-10-19T09:42:43;19.80;1.00
42905;DHT22;28550;51.228;4.528;2023-10-19T09:45:18;19.80;1.00
42905;DHT22;28550;51.228;4.528;2023-10-19T09:47:50;19.60;1.00
42905;DHT22;28550;51.228;4.528;2023-10-19T09:50:17;19.40;8.60
42905;DHT22;28550;51.228;4.528;2023-10-19T09:52:43;19.20;16.30
42905;DHT22;28550;51.228;4.528;2023-10-19T09:55:26;19.30;10.70
42905;DHT22;28550;51.228;4.528;2023-10-19T09:58:16;19.20;20.40
42905;DHT22;28550;51.228;4.528;2023-10-19T10:00:47;19.10;20.20
42905;DHT22;28550;51.228;4.528;2023-10-19T10:06:12;18.90;29.20
42905;DHT22;28550;51.228;4.528;2023-10-19T10:08:43;18.80;36.20
42905;DHT22;28550;51.228;4.528;2023-10-19T10:14:19;18.90;29.10
42905;DHT22;28550;51.228;4.528;2023-10-19T10:20:34;18.70;36.60
42905;DHT22;28550;51.228;4.528;2023-10-19T10:23:17;18.70;33.70
42905;DHT22;28550;51.228;4.528;2023-10-19T10:25:49;18.60;39.30
42905;DHT22;28550;51.228;4.528;2023-10-19T10:28:16;18.40;47.50
42905;DHT22;28550;51.228;4.528;2023-10-19T10:31:12;18.30;51.20
42905;DHT22;28550;51.228;4.528;2023-10-19T10:33:43;18.40;48.50
42905;DHT22;28550;51.228;4.528;2023-10-19T10:36:13;18.20;49.10
42905;DHT22;28550;51.228;4.528;2023-10-19T10:38:41;18.00;56.30
42905;DHT22;28550;51.228;4.528;2023-10-19T10:41:07;18.00;57.30
42905;DHT22;28550;51.228;4.528;2023-10-19T10:43:53;17.90;63.50
42905;DHT22;28550;51.228;4.528;2023-10-19T10:46:40;17.80;70.10
42905;DHT22;28550;51.228;4.528;2023-10-19T10:49:08;17.90;72.30
42905;DHT22;28550;51.228;4.528;2023-10-19T10:51:34;18.00;71.80
42905;DHT22;28550;51.228;4.528;2023-10-19T10:54:00;18.40;67.70
42905;DHT22;28550;51.228;4.528;2023-10-19T10:56:26;18.60;50.20
42905;DHT22;28550;51.228;4.528;2023-10-19T10:58:57;19.00;45.40
42905;DHT22;28550;51.228;4.528;2023-10-19T11:01:32;19.10;31.90
42905;DHT22;28550;51.228;4.528;2023-10-19T11:04:09;19.10;29.60
42905;DHT22;28550;51.228;4.528;2023-10-19T11:06:51;19.10;23.10
42905;DHT22;28550;51.228;4.528;2023-10-19T11:09:18;18.70;37.50
42905;DHT22;28550;51.228;4.528;2023-10-19T11:11:47;18.60;42.80
42905;DHT22;28550;51.228;4.528;2023-10-19T11:17:44;18.50;53.50
42905;DHT22;28550;51.228;4.528;2023-10-19T11:20:21;18.50;41.60
42905;DHT22;28550;51.228;4.528;2023-10-19T11:23:02;18.40;47.50
42905;DHT22;28550;51.228;4.528;2023-10-19T11:25:31;18.50;50.40
42905;DHT22;28550;51.228;4.528;2023-10-19T11:27:59;18.70;45.70
42905;DHT22;28550;51.228;4.528;2023-10-19T11:30:38;18.80;43.20
42905;DHT22;28550;51.228;4.528;2023-10-19T11:33:04;19.00;35.40
42905;DHT22;28550;51.228;4.528;2023-10-19T11:35:31;19.00;29.40
42905;DHT22;28550;51.228;4.528;2023-10-19T11:37:59;18.80;34.60
42905;DHT22;28550;51.228;4.528;2023-10-19T11:40:26;18.60;57.50
42905;DHT22;28550;51.228;4.528;2023-10-19T11:42:58;18.40;69.40
42905;DHT22;28550;51.228;4.528;2023-10-19T11:45:29;18.00;77.90
42905;DHT22;28550;51.228;4.528;2023-10-19T11:47:58;17.90;83.80
42905;DHT22;28550;51.228;4.528;2023-10-19T11:50:25;17.70;92.20
42905;DHT22;28550;51.228;4.528;2023-10-19T11:52:50;17.50;95.10
42905;DHT22;28550;51.228;4.528;2023-10-19T11:55:41;17.30;99.20
42905;DHT22;28550;51.228;4.528;2023-10-19T11:58:07;17.20;99.90
42905;DHT22;28550;51.228;4.528;2023-10-19T12:00:37;17.10;99.90
42905;DHT22;28550;51.228;4.528;2023-10-19T12:03:04;16.90;99.90
42905;DHT22;28550;51.228;4.528;2023-10-19T12:05:29;16.90;99.90
42905;DHT22;28550;51.228;4.528;2023-10-19T12:07:56;16.80;99.90
42905;DHT22;28550;51.228;4.528;2023-10-19T12:10:24;16.80;99.90
42905;DHT22;28550;51.228;4.528;2023-10-19T12:12:57;16.80;99.90
42905;DHT22;28550;51.228;4.528;2023-10-19T12:15:23;16.80;99.90
42905;DHT22;28550;51.228;4.528;2023-10-19T12:17:51;16.80;99.90
42905;DHT22;28550;51.228;4.528;2023-10-19T12:20:16;16.70;99.90
42905;DHT22;28550;51.228;4.528;2023-10-19T12:22:47;16.70;99.90
42905;DHT22;28550;51.228;4.528;2023-10-19T12:25:13;16.60;99.90
42905;DHT22;28550;51.228;4.528;2023-10-19T12:27:42;16.70;99.90
42905;DHT22;28550;51.228;4.528;2023-10-19T12:30:08;16.70;99.90
42905;DHT22;28550;51.228;4.528;2023-10-19T12:32:45;16.80;99.90
42905;DHT22;28550;51.228;4.528;2023-10-19T12:35:15;16.80;99.90
42905;DHT22;28550;51.228;4.528;2023-10-19T12:37:41;16.80;99.90
42905;DHT22;28550;51.228;4.528;2023-10-19T12:40:15;16.70;99.90
42905;DHT22;28550;51.228;4.528;2023-10-19T12:43:00;16.70;99.90
42905;DHT22;28550;51.228;4.528;2023-10-19T12:45:28;16.70;99.90
42905;DHT22;28550;51.228;4.528;2023-10-19T12:47:54;16.70;99.90
42905;DHT22;28550;51.228;4.528;2023-10-19T12:50:21;16.70;99.90
42905;DHT22;28550;51.228;4.528;2023-10-19T12:53:01;16.60;99.90
42905;DHT22;28550;51.228;4.528;2023-10-19T12:55:29;16.50;99.90
42905;DHT22;28550;51.228;4.528;2023-10-19T12:57:57;16.50;99.90
42905;DHT22;28550;51.228;4.528;2023-10-19T13:00:23;16.50;99.90
42905;DHT22;28550;51.228;4.528;2023-10-19T13:02:50;16.50;99.90
42905;DHT22;28550;51.228;4.528;2023-10-19T13:05:16;16.60;99.90
42905;DHT22;28550;51.228;4.528;2023-10-19T13:07:46;16.60;99.90
42905;DHT22;28550;51.228;4.528;2023-10-19T13:10:15;16.60;99.90
42905;DHT22;28550;51.228;4.528;2023-10-19T13:12:42;16.70;99.90
42905;DHT22;28550;51.228;4.528;2023-10-19T13:15:08;16.70;99.90
42905;DHT22;28550;51.228;4.528;2023-10-19T13:17:39;16.90;99.90
42905;DHT22;28550;51.228;4.528;2023-10-19T13:20:06;17.20;99.90
42905;DHT22;28550;51.228;4.528;2023-10-19T13:22:42;17.30;99.90
42905;DHT22;28550;51.228;4.528;2023-10-19T13:25:08;17.40;99.90
42905;DHT22;28550;51.228;4.528;2023-10-19T13:27:43;17.50;99.90
42905;DHT22;28550;51.228;4.528;2023-10-19T13:30:11;17.70;99.90
42905;DHT22;28550;51.228;4.528;2023-10-19T13:32:37;17.90;99.90
42905;DHT22;28550;51.228;4.528;2023-10-19T13:35:04;18.90;99.90
42905;DHT22;28550;51.228;4.528;2023-10-19T13:37:30;18.90;99.90
42905;DHT22;28550;51.228;4.528;2023-10-19T13:39:56;19.20;99.00
42905;DHT22;28550;51.228;4.528;2023-10-19T13:42:22;19.90;95.70
42905;DHT22;28550;51.228;4.528;2023-10-19T13:44:50;21.40;65.50
42905;DHT22;28550;51.228;4.528;2023-10-19T13:47:20;22.30;8.10
42905;DHT22;28550;51.228;4.528;2023-10-19T13:49:48;22.50;1.00
42905;DHT22;28550;51.228;4.528;2023-10-19T13:52:14;22.30;1.00
42905;DHT22;28550;51.228;4.528;2023-10-19T13:54:46;21.60;1.00
42905;DHT22;28550;51.228;4.528;2023-10-19T13:57:20;21.00;28.60
42905;DHT22;28550;51.228;4.528;2023-10-19T13:59:50;20.90;35.40
42905;DHT22;28550;51.228;4.528;2023-10-19T14:02:16;21.10;4.00
42905;DHT22;28550;51.228;4.528;2023-10-19T14:04:41;20.30;36.00
42905;DHT22;28550;51.228;4.528;2023-10-19T14:07:07;20.60;37.50
42905;DHT22;28550;51.228;4.528;2023-10-19T14:09:33;21.30;1.00
42905;DHT22;28550;51.228;4.528;2023-10-19T14:12:01;21.30;5.80
42905;DHT22;28550;51.228;4.528;2023-10-19T14:14:29;21.30;1.00
42905;DHT22;28550;51.228;4.528;2023-10-19T14:16:56;21.20;1.00
42905;DHT22;28550;51.228;4.528;2023-10-19T14:19:30;20.40;21.70
42905;DHT22;28550;51.228;4.528;2023-10-19T14:22:12;20.10;33.90
42905;DHT22;28550;51.228;4.528;2023-10-19T14:24:48;19.70;48.60
42905;DHT22;28550;51.228;4.528;2023-10-19T14:27:14;19.40;62.10
42905;DHT22;28550;51.228;4.528;2023-10-19T14:29:49;19.30;68.80
42905;DHT22;28550;51.228;4.528;2023-10-19T14:32:15;19.40;63.90
42905;DHT22;28550;51.228;4.528;2023-10-19T14:34:42;19.30;71.80
42905;DHT22;28550;51.228;4.528;2023-10-19T14:37:08;19.30;74.60
42905;DHT22;28550;51.228;4.528;2023-10-19T14:39:34;19.40;69.80
42905;DHT22;28550;51.228;4.528;2023-10-19T14:42:00;19.30;75.40
42905;DHT22;28550;51.228;4.528;2023-10-19T14:44:32;19.10;80.20
42905;DHT22;28550;51.228;4.528;2023-10-19T14:47:01;19.00;82.90
42905;DHT22;28550;51.228;4.528;2023-10-19T14:49:30;19.00;81.20
42905;DHT22;28550;51.228;4.528;2023-10-19T14:51:57;19.00;86.10
42905;DHT22;28550;51.228;4.528;2023-10-19T14:54:22;18.90;84.90
42905;DHT22;28550;51.228;4.528;2023-10-19T14:56:48;19.00;85.60
42905;DHT22;28550;51.228;4.528;2023-10-19T14:59:19;19.00;82.90
42905;DHT22;28550;51.228;4.528;2023-10-19T15:01:45;18.80;81.80
42905;DHT22;28550;51.228;4.528;2023-10-19T15:04:10;18.70;85.30
42905;DHT22;28550;51.228;4.528;2023-10-19T15:06:36;18.50;89.80
42905;DHT22;28550;51.228;4.528;2023-10-19T15:09:02;18.60;90.00
42905;DHT22;28550;51.228;4.528;2023-10-19T15:11:28;18.70;88.40
42905;DHT22;28550;51.228;4.528;2023-10-19T15:13:53;18.70;83.40
42905;DHT22;28550;51.228;4.528;2023-10-19T15:16:19;18.60;86.50
42905;DHT22;28550;51.228;4.528;2023-10-19T15:18:46;18.70;82.60
42905;DHT22;28550;51.228;4.528;2023-10-19T15:21:12;18.70;87.20
42905;DHT22;28550;51.228;4.528;2023-10-19T15:23:39;18.60;85.40
42905;DHT22;28550;51.228;4.528;2023-10-19T15:26:08;18.60;85.20
42905;DHT22;28550;51.228;4.528;2023-10-19T15:28:33;18.50;87.20
42905;DHT22;28550;51.228;4.528;2023-10-19T15:31:00;18.40;90.30
42905;DHT22;28550;51.228;4.528;2023-10-19T15:33:26;18.50;90.00
42905;DHT22;28550;51.228;4.528;2023-10-19T15:35:56;18.40;91.00
42905;DHT22;28550;51.228;4.528;2023-10-19T15:38:23;18.30;93.00
42905;DHT22;28550;51.228;4.528;2023-10-19T15:40:50;18.20;93.00
42905;DHT22;28550;51.228;4.528;2023-10-19T15:43:16;18.20;94.70
42905;DHT22;28550;51.228;4.528;2023-10-19T15:45:42;18.20;94.90
42905;DHT22;28550;51.228;4.528;2023-10-19T15:48:13;18.10;94.70
42905;DHT22;28550;51.228;4.528;2023-10-19T15:50:40;18.10;94.70
42905;DHT22;28550;51.228;4.528;2023-10-19T15:53:17;18.00;95.00
42905;DHT22;28550;51.228;4.528;2023-10-19T15:55:48;18.00;93.90
42905;DHT22;28550;51.228;4.528;2023-10-19T15:58:14;18.00;95.70
42905;DHT22;28550;51.228;4.528;2023-10-19T16:00:57;18.10;93.90
42905;DHT22;28550;51.228;4.528;2023-10-19T16:03:23;18.00;95.80
42905;DHT22;28550;51.228;4.528;2023-10-19T16:05:48;18.00;97.10
42905;DHT22;28550;51.228;4.528;2023-10-19T16:08:14;18.00;97.80
42905;DHT22;28550;51.228;4.528;2023-10-19T16:10:40;18.00;98.40
42905;DHT22;28550;51.228;4.528;2023-10-19T16:13:05;18.00;97.90